Wausau Downtown Airport Wausau US
ICAO: KAUW
IATA: AUW
Category: Medium
Scheduled Services: No

Elevation: 1201 ft
TransAlt. 18000 ft.

Airport Communications:
ASOS:125.925
MINNEAPOLIS CNTR:124.4
GREEN BAY RDO:122.4
CTAF/UNICOM:122.7

KAUW Zoom In..

If you have problems with the map follow the link
https://www.worldairports.se/pages/airport.php?
ICAO=KAUW

Runways:

(A) RW 05 length 3041 ft width 100 ft
---- / hdg 47

(B) RW 13 length 5200 ft width 100 ft
---- / hdg 127

(C) RW 23 length 3041 ft width 100 ft
---- / hdg 227

(D) RW 31 length 5200 ft width 100 ft
---- / hdg 307

Location; KAUW
Day. 16 / Time. 02.54 Zulu
* Altimeter: 30.06
* Temperature: -16° c. -3.2°f.
* Wind from: 000° Speed 00 kn.
Dewpoint: -18° c.
Visibility: 10 Statute Miles.
Clouds: Overcast 3700 ft.

KAUW 160254Z AUTO 00000KT 10SM OVC037 M16/M18 A3006 RMK AO2 SLP213 I3000 T11561178 53004


Wind - Calm.

 
 
jpsmedia worldairports.se 2019   terms of use